Terminal Aerodrome Forecast
Issued by NWS Albuquerque, NM

Home | Current Version | Previous Version | Text Only | Print | Product List | Glossary On
Versions: 1 2 3 4 5 6 7 8 9 10 11 12 13 14 15 16
105
FTUS45 KABQ 252340
TAFABQ
TAF
KABQ 252340Z 2600/2624 VRB05KT P6SM SCT100 SCT150 BKN200
     FM260200 12010G16KT P6SM VCSH BKN100
     FM260800 VRB10G18KT P6SM VCSH BKN090
     FM261100 VRB06KT P6SM SCT100 BKN140
     FM261400 26005KT P6SM SCT100
     FM262000 25009KT P6SM SCT100 SCT150=

USA.gov is the U.S. government's official web portal to all federal, state and local government web resources and services.